createdAt,value
2023-01-28T00:01:17.980Z,1.97
2023-01-28T00:03:44.460Z,2.10
2023-01-28T00:06:15.217Z,1.80
2023-01-28T00:08:42.081Z,1.97
2023-01-28T00:11:11.331Z,2.23
2023-01-28T00:13:38.205Z,1.70
2023-01-28T00:16:08.640Z,2.00
2023-01-28T00:18:36.062Z,1.80
2023-01-28T00:21:07.125Z,2.00
2023-01-28T00:23:36.327Z,1.87
2023-01-28T00:26:05.807Z,1.60
2023-01-28T00:28:32.451Z,1.80
2023-01-28T00:30:59.041Z,1.77
2023-01-28T00:33:29.313Z,1.80
2023-01-28T00:36:00.270Z,1.63
2023-01-28T00:38:28.724Z,1.67
2023-01-28T00:40:55.473Z,1.53
2023-01-28T00:43:23.165Z,1.40
2023-01-28T00:45:50.417Z,1.40
2023-01-28T00:48:17.020Z,1.60
2023-01-28T00:50:45.553Z,1.60
2023-01-28T00:53:12.057Z,1.53
2023-01-28T00:55:39.016Z,1.37
2023-01-28T00:58:05.567Z,1.40
2023-01-28T01:00:32.006Z,1.57
2023-01-28T01:02:58.428Z,1.20
2023-01-28T01:05:24.844Z,1.80
2023-01-28T01:07:51.421Z,1.60
2023-01-28T01:10:20.200Z,1.53
2023-01-28T01:12:47.803Z,1.67
2023-01-28T01:15:15.907Z,1.70
2023-01-28T01:17:46.243Z,1.30
2023-01-28T01:20:19.875Z,1.33
2023-01-28T01:22:46.439Z,1.30
2023-01-28T01:25:15.405Z,1.53
2023-01-28T01:27:43.200Z,1.37
2023-01-28T01:30:10.741Z,1.40
2023-01-28T01:32:38.544Z,1.60
2023-01-28T01:35:07.310Z,1.43
2023-01-28T01:37:35.428Z,1.50
2023-01-28T01:40:04.627Z,1.20
2023-01-28T01:42:32.909Z,1.40
2023-01-28T01:45:07.738Z,1.30
2023-01-28T01:48:01.030Z,1.43
2023-01-28T01:50:27.353Z,1.50
2023-01-28T01:52:59.646Z,1.20
2023-01-28T01:55:30.691Z,1.27
2023-01-28T01:58:02.540Z,1.20
2023-01-28T02:00:28.981Z,1.30
2023-01-28T02:02:56.862Z,1.33
2023-01-28T02:05:23.476Z,1.30
2023-01-28T02:07:55.206Z,1.30
2023-01-28T02:10:23.149Z,1.27
2023-01-28T02:12:56.121Z,1.50
2023-01-28T02:15:27.088Z,1.20
2023-01-28T02:17:53.643Z,1.30
2023-01-28T02:20:32.199Z,1.20
2023-01-28T02:23:27.508Z,1.20
2023-01-28T02:26:15.696Z,1.40
2023-01-28T02:29:02.907Z,1.37
2023-01-28T02:32:23.655Z,1.30
2023-01-28T02:35:00.951Z,1.20
2023-01-28T02:38:04.148Z,1.60
2023-01-28T02:40:54.831Z,1.37
2023-01-28T02:43:40.410Z,1.30
2023-01-28T02:46:53.400Z,1.10
2023-01-28T02:49:31.141Z,1.20
2023-01-28T02:52:42.005Z,1.37
2023-01-28T02:55:29.361Z,1.20
2023-01-28T02:58:17.562Z,1.30
2023-01-28T03:01:08.743Z,1.67
2023-01-28T03:03:50.328Z,1.20
2023-01-28T03:06:22.230Z,1.30
2023-01-28T03:09:12.586Z,1.30
2023-01-28T03:12:05.884Z,1.27
2023-01-28T03:14:54.309Z,1.10
2023-01-28T03:17:45.060Z,1.20
2023-01-28T03:20:31.777Z,1.23
2023-01-28T03:23:22.037Z,1.70
2023-01-28T03:26:12.756Z,1.10
2023-01-28T03:28:58.796Z,1.40
2023-01-28T03:31:44.771Z,1.37
2023-01-28T03:34:32.476Z,1.43
2023-01-28T03:36:59.745Z,1.27
2023-01-28T03:39:45.736Z,1.30
2023-01-28T03:42:14.758Z,1.37
2023-01-28T03:45:01.819Z,1.20
2023-01-28T03:47:30.951Z,1.40
2023-01-28T03:50:01.930Z,1.40
2023-01-28T03:52:33.241Z,1.60
2023-01-28T03:55:16.377Z,1.20
2023-01-28T03:57:44.957Z,1.23
2023-01-28T04:00:13.072Z,1.50
2023-01-28T04:02:42.179Z,1.50
2023-01-28T04:05:12.981Z,1.60
2023-01-28T04:07:44.962Z,1.53
2023-01-28T04:10:19.783Z,1.50
2023-01-28T04:12:54.482Z,1.80
2023-01-28T04:15:24.197Z,1.60
2023-01-28T04:17:50.845Z,1.70
2023-01-28T04:20:25.609Z,1.57
2023-01-28T04:22:52.124Z,1.53
2023-01-28T04:25:21.343Z,1.80
2023-01-28T04:27:48.264Z,1.40
2023-01-28T04:30:19.014Z,1.80
2023-01-28T04:32:55.986Z,1.90
2023-01-28T04:35:41.781Z,1.77
2023-01-28T04:38:20.700Z,1.77
2023-01-28T04:41:13.354Z,1.80
2023-01-28T04:43:39.767Z,2.07
2023-01-28T04:46:27.183Z,1.90
2023-01-28T04:49:09.531Z,1.90
2023-01-28T04:51:42.076Z,2.00
2023-01-28T04:54:26.976Z,1.80
2023-01-28T04:56:57.159Z,1.70
2023-01-28T04:59:24.402Z,2.00
2023-01-28T05:01:51.734Z,1.60
2023-01-28T05:04:19.326Z,2.30
2023-01-28T05:06:46.467Z,1.90
2023-01-28T05:09:23.878Z,2.03
2023-01-28T05:11:51.625Z,1.67
2023-01-28T05:14:18.236Z,2.30
2023-01-28T05:16:50.419Z,2.47
2023-01-28T05:19:18.041Z,2.17
2023-01-28T05:21:46.423Z,2.00
2023-01-28T05:24:31.249Z,1.80
2023-01-28T05:26:57.855Z,2.10
2023-01-28T05:29:24.504Z,2.40
2023-01-28T05:31:50.970Z,2.17
2023-01-28T05:34:17.515Z,2.20
2023-01-28T05:36:44.538Z,1.63
2023-01-28T05:39:27.106Z,2.10
2023-01-28T05:41:53.620Z,1.97
2023-01-28T05:44:20.186Z,1.70
2023-01-28T05:46:58.654Z,2.10
2023-01-28T05:49:44.398Z,2.07
2023-01-28T05:52:30.791Z,2.33
2023-01-28T05:54:57.535Z,2.20
2023-01-28T05:57:25.385Z,2.40
2023-01-28T05:59:52.005Z,2.07
2023-01-28T06:02:19.720Z,2.23
2023-01-28T06:04:46.502Z,2.60
2023-01-28T06:07:13.375Z,2.60
2023-01-28T06:09:42.640Z,2.80
2023-01-28T06:12:09.821Z,2.20
2023-01-28T06:14:49.656Z,2.43
2023-01-28T06:17:43.911Z,2.30
2023-01-28T06:20:22.638Z,2.20
2023-01-28T06:22:52.016Z,2.10
2023-01-28T06:25:19.694Z,2.57
2023-01-28T06:27:47.147Z,2.50
2023-01-28T06:30:14.084Z,2.47
2023-01-28T06:32:40.805Z,2.70
2023-01-28T06:35:08.099Z,2.30
2023-01-28T06:37:34.653Z,2.40
2023-01-28T06:40:01.077Z,3.10
2023-01-28T06:42:30.972Z,2.77
2023-01-28T06:44:57.360Z,2.67
2023-01-28T06:47:23.835Z,3.03
2023-01-28T06:49:50.406Z,2.73
2023-01-28T06:52:16.822Z,2.90
2023-01-28T06:54:44.130Z,2.90
2023-01-28T06:57:11.034Z,2.70
2023-01-28T06:59:37.507Z,2.87
2023-01-28T07:02:03.924Z,2.93
2023-01-28T07:04:31.783Z,3.03
2023-01-28T07:06:58.340Z,3.23
2023-01-28T07:09:24.711Z,3.20
2023-01-28T07:11:51.242Z,3.77
2023-01-28T07:14:17.866Z,4.30
2023-01-28T07:16:44.278Z,4.00
2023-01-28T07:19:10.967Z,3.50
2023-01-28T07:21:37.535Z,5.23
2023-01-28T07:24:05.293Z,3.97
2023-01-28T07:26:32.047Z,3.97
2023-01-28T07:28:58.534Z,4.40
2023-01-28T07:31:24.987Z,3.40
2023-01-28T07:33:51.699Z,3.77
2023-01-28T07:36:18.100Z,2.90
2023-01-28T07:38:44.592Z,3.40
2023-01-28T07:41:11.252Z,3.10
2023-01-28T07:43:37.664Z,3.50
2023-01-28T07:46:04.901Z,3.70
2023-01-28T07:48:31.424Z,3.67
2023-01-28T07:51:03.299Z,3.50
2023-01-28T07:53:29.716Z,3.53
2023-01-28T07:56:01.215Z,3.40
2023-01-28T07:58:27.706Z,4.23
2023-01-28T08:00:59.039Z,3.30
2023-01-28T08:03:26.851Z,3.30
2023-01-28T08:05:55.447Z,3.63
2023-01-28T08:08:23.441Z,3.23
2023-01-28T08:10:50.690Z,3.53
2023-01-28T08:13:18.526Z,3.30
2023-01-28T08:15:46.108Z,3.50
2023-01-28T08:18:14.249Z,3.50
2023-01-28T08:20:41.427Z,3.40
2023-01-28T08:23:19.251Z,3.73
2023-01-28T08:25:46.246Z,4.03
2023-01-28T08:28:13.697Z,3.67
2023-01-28T08:30:40.535Z,3.87
2023-01-28T08:33:08.577Z,3.80
2023-01-28T08:35:35.746Z,3.53
2023-01-28T08:38:03.477Z,3.40
2023-01-28T08:40:30.108Z,3.83
2023-01-28T08:42:57.116Z,3.40
2023-01-28T08:45:28.054Z,3.43
2023-01-28T08:47:59.922Z,3.40
2023-01-28T08:50:32.411Z,3.60
2023-01-28T08:53:01.551Z,3.53
2023-01-28T08:55:30.108Z,3.33
2023-01-28T08:57:58.533Z,3.33
2023-01-28T09:00:25.380Z,3.30
2023-01-28T09:02:53.064Z,3.33
2023-01-28T09:05:21.005Z,3.23
2023-01-28T09:07:47.923Z,3.03
2023-01-28T09:10:16.528Z,3.30
2023-01-28T09:12:43.914Z,3.17
2023-01-28T09:15:10.906Z,3.43
2023-01-28T09:17:37.559Z,3.60
2023-01-28T09:20:05.039Z,3.10
2023-01-28T09:22:32.745Z,3.80
2023-01-28T09:24:59.162Z,4.00
2023-01-28T09:27:25.609Z,3.67
2023-01-28T09:29:52.078Z,3.97
2023-01-28T09:32:18.556Z,3.90
2023-01-28T09:34:44.962Z,4.30
2023-01-28T09:37:12.016Z,4.40
2023-01-28T09:39:38.811Z,4.13
2023-01-28T09:42:17.084Z,3.77
2023-01-28T09:44:59.337Z,3.80
2023-01-28T09:47:35.289Z,3.77
2023-01-28T09:50:06.785Z,3.73
2023-01-28T09:52:37.309Z,3.60
2023-01-28T09:55:16.977Z,3.73
2023-01-28T09:58:01.892Z,3.40
2023-01-28T10:00:54.984Z,3.67
2023-01-28T10:03:37.669Z,3.17
2023-01-28T10:06:26.323Z,3.70
2023-01-28T10:09:14.389Z,3.77
2023-01-28T10:11:56.490Z,4.80
2023-01-28T10:14:36.283Z,3.83
2023-01-28T10:17:12.233Z,3.70
2023-01-28T10:19:47.044Z,3.83
2023-01-28T10:22:25.626Z,3.30
2023-01-28T10:24:58.349Z,3.90
2023-01-28T10:27:29.711Z,3.90
2023-01-28T10:29:58.675Z,4.13
2023-01-28T10:32:37.020Z,4.63
2023-01-28T10:35:04.400Z,4.40
2023-01-28T10:37:34.701Z,5.17
2023-01-28T10:40:03.104Z,6.00
2023-01-28T10:42:32.192Z,4.93
2023-01-28T10:45:22.917Z,5.90
2023-01-28T10:48:03.353Z,6.83
2023-01-28T10:50:31.285Z,7.20
2023-01-28T10:53:02.294Z,8.97
2023-01-28T10:55:45.870Z,8.73
2023-01-28T10:58:22.026Z,9.27
2023-01-28T11:00:54.687Z,8.30
2023-01-28T11:03:23.163Z,8.00
2023-01-28T11:05:52.334Z,8.93
2023-01-28T11:08:19.845Z,9.07
2023-01-28T11:10:47.591Z,8.77
2023-01-28T11:13:20.421Z,9.00
2023-01-28T11:15:58.118Z,8.17
2023-01-28T11:18:28.402Z,7.90
2023-01-28T11:21:01.008Z,8.63
2023-01-28T11:23:31.433Z,7.90
2023-01-28T11:26:05.755Z,8.97
2023-01-28T11:28:32.881Z,8.13
2023-01-28T11:31:03.313Z,8.40
2023-01-28T11:33:44.335Z,7.63
2023-01-28T11:36:16.652Z,7.77
2023-01-28T11:39:00.346Z,7.50
2023-01-28T11:41:34.135Z,8.03
2023-01-28T11:44:14.929Z,7.67
2023-01-28T11:46:58.407Z,8.07
2023-01-28T11:49:35.848Z,7.53
2023-01-28T11:52:11.126Z,7.27
2023-01-28T11:55:22.275Z,7.80
2023-01-28T11:58:03.459Z,7.70
2023-01-28T12:00:48.465Z,8.63
2023-01-28T12:03:43.062Z,9.07
2023-01-28T12:06:23.893Z,8.40
2023-01-28T12:09:12.192Z,7.97
2023-01-28T12:12:12.117Z,8.47
2023-01-28T12:14:57.942Z,7.77
2023-01-28T12:17:42.718Z,9.03
2023-01-28T12:20:28.157Z,8.97
2023-01-28T12:22:58.395Z,8.23
2023-01-28T12:25:36.984Z,8.80
2023-01-28T12:28:30.401Z,8.20
2023-01-28T12:31:17.992Z,8.13
2023-01-28T12:34:03.736Z,8.07
2023-01-28T12:36:51.950Z,8.00
2023-01-28T12:39:42.022Z,7.53
2023-01-28T12:42:23.224Z,7.80
2023-01-28T12:44:56.516Z,7.80
2023-01-28T12:47:31.472Z,7.73
2023-01-28T12:50:03.863Z,7.93
2023-01-28T12:52:35.256Z,8.53
2023-01-28T12:55:11.887Z,8.00
2023-01-28T12:57:38.713Z,7.67
2023-01-28T13:00:28.063Z,7.80
2023-01-28T13:03:19.344Z,8.13
2023-01-28T13:05:50.897Z,8.10
2023-01-28T13:08:23.915Z,7.93
2023-01-28T13:10:52.441Z,10.50
2023-01-28T13:13:34.524Z,9.00
2023-01-28T13:16:02.689Z,9.30
2023-01-28T13:18:44.398Z,9.00
2023-01-28T13:21:23.790Z,8.00
2023-01-28T13:24:03.058Z,8.53
2023-01-28T13:26:51.246Z,9.03
2023-01-28T13:29:24.904Z,9.10
2023-01-28T13:31:56.964Z,8.17
2023-01-28T13:34:44.164Z,8.30
2023-01-28T13:37:37.696Z,7.77
2023-01-28T13:40:23.675Z,8.27
2023-01-28T13:43:05.156Z,8.10
2023-01-28T13:45:33.407Z,8.00
2023-01-28T13:47:59.827Z,8.43
2023-01-28T13:50:37.217Z,8.43
2023-01-28T13:53:25.327Z,9.10
2023-01-28T13:55:57.437Z,8.57
2023-01-28T13:58:42.564Z,8.20
2023-01-28T14:01:29.131Z,7.50
2023-01-28T14:04:04.542Z,8.50
2023-01-28T14:06:56.091Z,8.30
2023-01-28T14:09:48.749Z,8.27
2023-01-28T14:12:42.814Z,8.17
2023-01-28T14:15:13.309Z,7.93
2023-01-28T14:17:48.327Z,8.83
2023-01-28T14:20:22.565Z,8.83
2023-01-28T14:22:50.757Z,9.10
2023-01-28T14:25:32.969Z,9.00
2023-01-28T14:28:02.669Z,8.23
2023-01-28T14:30:50.781Z,8.70
2023-01-28T14:33:17.764Z,8.43
2023-01-28T14:35:47.130Z,8.93
2023-01-28T14:38:20.885Z,8.30
2023-01-28T14:40:53.427Z,7.77
2023-01-28T14:43:24.976Z,8.77
2023-01-28T14:46:05.188Z,8.37
2023-01-28T14:48:46.578Z,8.20
2023-01-28T14:51:46.844Z,8.10
2023-01-28T14:54:28.195Z,8.37
2023-01-28T14:57:10.143Z,8.30
2023-01-28T14:59:44.825Z,8.20
2023-01-28T15:02:44.854Z,8.43
2023-01-28T15:05:26.462Z,7.80
2023-01-28T15:07:53.741Z,8.57
2023-01-28T15:10:53.269Z,8.00
2023-01-28T15:13:29.305Z,8.97
2023-01-28T15:16:00.509Z,9.43
2023-01-28T15:18:35.365Z,11.27
2023-01-28T15:21:02.705Z,10.17
2023-01-28T15:23:36.225Z,9.07
2023-01-28T15:26:25.504Z,47.17
2023-01-28T15:28:54.164Z,15.00
2023-01-28T15:31:22.375Z,16.07
2023-01-28T15:34:18.689Z,11.13
2023-01-28T15:36:47.638Z,9.50
2023-01-28T15:39:16.681Z,9.10
2023-01-28T15:41:49.924Z,9.70
2023-01-28T15:44:29.260Z,8.90
2023-01-28T15:46:58.086Z,9.57
2023-01-28T15:49:31.187Z,9.27
2023-01-28T15:51:57.843Z,10.67
2023-01-28T15:54:25.756Z,12.37
2023-01-28T15:56:52.580Z,9.70
2023-01-28T15:59:26.729Z,9.97
2023-01-28T16:02:19.849Z,9.40
2023-01-28T16:05:00.329Z,10.87
2023-01-28T16:07:30.960Z,10.17
2023-01-28T16:09:59.531Z,10.60
2023-01-28T16:12:26.933Z,10.73
2023-01-28T16:15:04.052Z,11.27
2023-01-28T16:17:37.455Z,11.23
2023-01-28T16:20:08.112Z,13.73
2023-01-28T16:22:38.035Z,16.37
2023-01-28T16:25:21.124Z,20.00
2023-01-28T16:27:47.783Z,21.20
2023-01-28T16:30:15.323Z,14.20
2023-01-28T16:32:44.693Z,14.27
2023-01-28T16:35:20.294Z,11.77
2023-01-28T16:37:48.505Z,11.40
2023-01-28T16:40:23.455Z,10.90
2023-01-28T16:42:53.468Z,11.67
2023-01-28T16:45:25.025Z,12.40
2023-01-28T16:47:52.607Z,15.00
2023-01-28T16:50:21.896Z,19.33
2023-01-28T16:52:51.238Z,15.63
2023-01-28T16:55:20.148Z,13.17
2023-01-28T16:57:48.811Z,14.07
2023-01-28T17:00:26.930Z,15.30
2023-01-28T17:02:54.607Z,14.03
2023-01-28T17:05:23.275Z,12.63
2023-01-28T17:07:50.070Z,13.30
2023-01-28T17:10:17.421Z,11.90
2023-01-28T17:12:44.682Z,13.23
2023-01-28T17:15:11.575Z,12.83
2023-01-28T17:17:37.998Z,14.83
2023-01-28T17:20:06.120Z,13.27
2023-01-28T17:22:32.536Z,11.87
2023-01-28T17:24:58.978Z,12.40
2023-01-28T17:27:25.424Z,13.20
2023-01-28T17:29:53.416Z,11.63
2023-01-28T17:32:19.930Z,12.23
2023-01-28T17:34:47.829Z,14.00
2023-01-28T17:37:14.314Z,11.57
2023-01-28T17:39:41.716Z,12.70
2023-01-28T17:42:08.188Z,11.30
2023-01-28T17:44:34.611Z,12.17
2023-01-28T17:47:01.067Z,10.23
2023-01-28T17:49:27.698Z,11.80
2023-01-28T17:51:54.119Z,10.77
2023-01-28T17:54:23.456Z,10.30
2023-01-28T17:56:50.014Z,11.73
2023-01-28T17:59:17.536Z,14.50
2023-01-28T18:01:44.801Z,14.10
2023-01-28T18:04:12.985Z,13.43
2023-01-28T18:06:39.447Z,12.10
2023-01-28T18:09:06.988Z,13.10
2023-01-28T18:11:33.591Z,11.23
2023-01-28T18:14:00.050Z,11.37
2023-01-28T18:16:26.625Z,11.30
2023-01-28T18:18:53.224Z,14.17
2023-01-28T18:21:39.935Z,13.77
2023-01-28T18:24:17.303Z,12.80
2023-01-28T18:26:43.854Z,14.63
2023-01-28T18:29:16.367Z,17.17
2023-01-28T18:31:42.837Z,14.13
2023-01-28T18:34:09.515Z,12.00
2023-01-28T18:36:35.891Z,11.67
2023-01-28T18:39:02.320Z,11.87
2023-01-28T18:41:29.095Z,11.73
2023-01-28T18:43:55.509Z,18.57
2023-01-28T18:46:21.900Z,20.63
2023-01-28T18:48:48.328Z,17.43
2023-01-28T18:51:28.934Z,13.60
2023-01-28T18:54:02.075Z,13.27
2023-01-28T18:56:29.747Z,13.00
2023-01-28T18:59:01.139Z,14.80
2023-01-28T19:01:28.833Z,13.63
2023-01-28T19:03:56.932Z,14.10
2023-01-28T19:06:24.841Z,14.87
2023-01-28T19:08:54.010Z,14.97
2023-01-28T19:11:21.823Z,13.73
2023-01-28T19:13:48.241Z,15.20
2023-01-28T19:16:14.980Z,14.70
2023-01-28T19:18:41.447Z,16.23
2023-01-28T19:21:07.899Z,16.80
2023-01-28T19:23:48.878Z,16.17
2023-01-28T19:26:21.210Z,15.43
2023-01-28T19:28:51.712Z,14.70
2023-01-28T19:31:23.259Z,15.13
2023-01-28T19:33:54.525Z,14.90
2023-01-28T19:36:21.925Z,15.57
2023-01-28T19:38:48.373Z,16.10
2023-01-28T19:41:16.948Z,14.10
2023-01-28T19:43:44.144Z,13.50
2023-01-28T19:46:14.041Z,13.73
2023-01-28T19:48:40.510Z,15.10
2023-01-28T19:51:08.502Z,14.27
2023-01-28T19:53:36.544Z,13.63
2023-01-28T19:56:04.786Z,13.23
2023-01-28T19:58:39.220Z,14.27
2023-01-28T20:01:09.697Z,14.27
2023-01-28T20:03:36.851Z,14.60
2023-01-28T20:06:05.812Z,14.30
2023-01-28T20:08:32.392Z,14.37
2023-01-28T20:11:07.060Z,15.03
2023-01-28T20:13:34.334Z,13.83
2023-01-28T20:16:08.360Z,13.50
2023-01-28T20:18:35.527Z,13.53
2023-01-28T20:21:04.918Z,12.53
2023-01-28T20:23:31.601Z,12.80
2023-01-28T20:26:01.242Z,12.27
2023-01-28T20:28:28.192Z,12.03
2023-01-28T20:30:55.519Z,11.83
2023-01-28T20:33:22.724Z,12.97
2023-01-28T20:35:49.175Z,11.43
2023-01-28T20:38:15.630Z,11.80
2023-01-28T20:40:46.022Z,12.50
2023-01-28T20:43:12.661Z,12.67
2023-01-28T20:45:39.052Z,13.00
2023-01-28T20:48:06.374Z,12.60
2023-01-28T20:50:34.340Z,11.43
2023-01-28T20:53:00.771Z,11.90
2023-01-28T20:55:28.557Z,11.97
2023-01-28T20:57:55.197Z,12.10
2023-01-28T21:00:22.227Z,13.13
2023-01-28T21:02:48.789Z,12.90
2023-01-28T21:05:15.303Z,13.00
2023-01-28T21:07:41.710Z,13.23
2023-01-28T21:10:08.843Z,13.10
2023-01-28T21:12:35.353Z,13.67
2023-01-28T21:15:02.659Z,13.60
2023-01-28T21:17:31.581Z,14.23
2023-01-28T21:19:58.628Z,13.73
2023-01-28T21:22:25.291Z,14.17
2023-01-28T21:24:51.711Z,13.67
2023-01-28T21:27:18.118Z,13.07
2023-01-28T21:29:44.559Z,13.70
2023-01-28T21:32:11.331Z,13.43
2023-01-28T21:34:38.048Z,13.33
2023-01-28T21:37:04.464Z,13.43
2023-01-28T21:39:30.940Z,12.90
2023-01-28T21:41:57.354Z,13.73
2023-01-28T21:44:23.934Z,14.27
2023-01-28T21:46:50.445Z,13.97
2023-01-28T21:49:16.875Z,14.03
2023-01-28T21:51:46.300Z,13.83
2023-01-28T21:54:14.415Z,13.13
2023-01-28T21:56:45.109Z,13.83
2023-01-28T21:59:28.030Z,13.80
2023-01-28T22:01:55.461Z,14.30
2023-01-28T22:04:21.975Z,14.47
2023-01-28T22:06:49.242Z,14.33
2023-01-28T22:09:15.749Z,14.27
2023-01-28T22:11:43.868Z,14.70
2023-01-28T22:14:11.335Z,15.73
2023-01-28T22:16:37.990Z,14.67
2023-01-28T22:19:04.855Z,14.27
2023-01-28T22:21:31.375Z,15.00
2023-01-28T22:23:58.158Z,15.50
2023-01-28T22:26:24.627Z,15.37
2023-01-28T22:28:51.341Z,14.63
2023-01-28T22:31:17.937Z,14.60
2023-01-28T22:33:45.722Z,15.07
2023-01-28T22:36:15.026Z,15.03
2023-01-28T22:38:43.867Z,14.60
2023-01-28T22:41:13.524Z,15.10
2023-01-28T22:43:41.750Z,14.97
2023-01-28T22:46:09.683Z,15.73
2023-01-28T22:48:37.666Z,16.73
2023-01-28T22:51:10.574Z,14.90
2023-01-28T22:53:37.048Z,14.77
2023-01-28T22:56:03.701Z,16.40
2023-01-28T22:58:31.578Z,15.27
2023-01-28T23:00:58.461Z,16.47
2023-01-28T23:03:24.980Z,16.00
2023-01-28T23:05:51.792Z,16.13
2023-01-28T23:08:43.953Z,15.93
2023-01-28T23:11:14.891Z,14.93
2023-01-28T23:14:01.519Z,15.33
2023-01-28T23:16:50.165Z,14.00
2023-01-28T23:19:35.719Z,14.47
2023-01-28T23:22:21.686Z,15.17
2023-01-28T23:24:48.121Z,14.17
2023-01-28T23:27:14.571Z,15.30
2023-01-28T23:29:41.695Z,14.70
2023-01-28T23:32:09.844Z,15.23
2023-01-28T23:34:38.667Z,14.87
2023-01-28T23:37:09.500Z,15.17
2023-01-28T23:39:36.305Z,15.17
2023-01-28T23:42:15.290Z,14.93
2023-01-28T23:44:42.069Z,15.30
2023-01-28T23:47:08.938Z,15.57
2023-01-28T23:49:35.663Z,15.33
2023-01-28T23:52:03.922Z,14.90
2023-01-28T23:54:30.785Z,14.60
2023-01-28T23:56:57.431Z,15.40
2023-01-28T23:59:24.699Z,15.87
